sensor_id;sensor_type;location;lat;lon;timestamp;pressure;altitude;pressure_sealevel;temperature;humidity
76374;BME280;65197;50.164;8.012;2023-08-06T00:01:59;71872.44;;;-144.13;100.00
76374;BME280;65197;50.164;8.012;2023-08-06T00:04:24;71870.50;;;-144.13;100.00
76374;BME280;65197;50.164;8.012;2023-08-06T00:06:50;71860.75;;;-144.13;100.00
76374;BME280;65197;50.164;8.012;2023-08-06T00:09:15;71856.84;;;-144.13;100.00
76374;BME280;65197;50.164;8.012;2023-08-06T00:11:40;71849.06;;;-144.13;100.00
76374;BME280;65197;50.164;8.012;2023-08-06T00:14:08;71845.16;;;-144.13;100.00
76374;BME280;65197;50.164;8.012;2023-08-06T00:16:34;71841.25;;;-144.13;100.00
76374;BME280;65197;50.164;8.012;2023-08-06T00:18:59;71837.34;;;-144.13;100.00
76374;BME280;65197;50.164;8.012;2023-08-06T00:21:25;71835.41;;;-144.13;100.00
76374;BME280;65197;50.164;8.012;2023-08-06T00:23:50;71829.56;;;-144.13;100.00
76374;BME280;65197;50.164;8.012;2023-08-06T00:26:17;71829.56;;;-144.13;100.00
76374;BME280;65197;50.164;8.012;2023-08-06T00:28:42;71821.75;;;-144.13;100.00
76374;BME280;65197;50.164;8.012;2023-08-06T00:31:08;71819.81;;;-144.13;100.00
76374;BME280;65197;50.164;8.012;2023-08-06T00:33:33;71815.91;;;-144.13;100.00
76374;BME280;65197;50.164;8.012;2023-08-06T00:35:58;71817.84;;;-144.13;100.00
76374;BME280;65197;50.164;8.012;2023-08-06T00:38:24;71815.91;;;-144.13;100.00
76374;BME280;65197;50.164;8.012;2023-08-06T00:40:49;71810.06;;;-144.13;100.00
76374;BME280;65197;50.164;8.012;2023-08-06T00:43:14;71815.91;;;-144.13;100.00
76374;BME280;65197;50.164;8.012;2023-08-06T00:45:40;71810.06;;;-144.13;100.00
76374;BME280;65197;50.164;8.012;2023-08-06T00:48:05;71806.16;;;-144.13;100.00
76374;BME280;65197;50.164;8.012;2023-08-06T00:50:32;71810.06;;;-144.13;100.00
76374;BME280;65197;50.164;8.012;2023-08-06T00:52:57;71821.75;;;-144.13;100.00
76374;BME280;65197;50.164;8.012;2023-08-06T00:55:23;71825.66;;;-144.13;100.00
76374;BME280;65197;50.164;8.012;2023-08-06T00:57:49;71831.50;;;-144.13;100.00
76374;BME280;65197;50.164;8.012;2023-08-06T01:00:16;71837.34;;;-144.13;100.00
76374;BME280;65197;50.164;8.012;2023-08-06T01:02:41;71849.06;;;-144.13;100.00
76374;BME280;65197;50.164;8.012;2023-08-06T01:05:07;71851.00;;;-144.13;100.00
76374;BME280;65197;50.164;8.012;2023-08-06T01:13:38;71835.41;;;-144.13;100.00
76374;BME280;65197;50.164;8.012;2023-08-06T01:16:07;71831.50;;;-144.13;100.00
76374;BME280;65197;50.164;8.012;2023-08-06T01:18:34;71823.72;;;-144.13;100.00
76374;BME280;65197;50.164;8.012;2023-08-06T01:21:00;71817.84;;;-144.13;100.00
76374;BME280;65197;50.164;8.012;2023-08-06T01:23:25;71825.66;;;-144.13;100.00
76374;BME280;65197;50.164;8.012;2023-08-06T01:26:09;71827.59;;;-144.13;100.00
76374;BME280;65197;50.164;8.012;2023-08-06T01:29:06;71833.47;;;-144.13;100.00
76374;BME280;65197;50.164;8.012;2023-08-06T01:31:37;71825.66;;;-144.13;100.00
76374;BME280;65197;50.164;8.012;2023-08-06T01:34:07;71823.72;;;-144.13;100.00
76374;BME280;65197;50.164;8.012;2023-08-06T01:36:34;71825.66;;;-144.13;100.00
76374;BME280;65197;50.164;8.012;2023-08-06T01:39:00;71835.41;;;-144.13;100.00
76374;BME280;65197;50.164;8.012;2023-08-06T01:41:26;71833.47;;;-144.13;100.00
76374;BME280;65197;50.164;8.012;2023-08-06T01:43:51;71841.25;;;-144.13;100.00
76374;BME280;65197;50.164;8.012;2023-08-06T01:46:16;71837.34;;;-144.13;100.00
76374;BME280;65197;50.164;8.012;2023-08-06T01:48:42;71835.41;;;-144.13;100.00
76374;BME280;65197;50.164;8.012;2023-08-06T01:51:08;71833.47;;;-144.13;100.00
76374;BME280;65197;50.164;8.012;2023-08-06T01:53:33;71837.34;;;-144.13;100.00
76374;BME280;65197;50.164;8.012;2023-08-06T01:55:59;71833.47;;;-144.13;100.00
76374;BME280;65197;50.164;8.012;2023-08-06T01:58:24;71835.41;;;-144.13;100.00
76374;BME280;65197;50.164;8.012;2023-08-06T02:00:50;71833.47;;;-144.13;100.00
76374;BME280;65197;50.164;8.012;2023-08-06T02:03:15;71829.56;;;-144.13;100.00
76374;BME280;65197;50.164;8.012;2023-08-06T02:05:41;71831.50;;;-144.13;100.00
76374;BME280;65197;50.164;8.012;2023-08-06T02:08:06;71821.75;;;-144.13;100.00
76374;BME280;65197;50.164;8.012;2023-08-06T02:10:32;71829.56;;;-144.13;100.00
76374;BME280;65197;50.164;8.012;2023-08-06T02:12:57;71825.66;;;-144.13;100.00
76374;BME280;65197;50.164;8.012;2023-08-06T02:15:22;71837.34;;;-144.13;100.00
76374;BME280;65197;50.164;8.012;2023-08-06T02:17:48;71835.41;;;-144.13;100.00
76374;BME280;65197;50.164;8.012;2023-08-06T02:20:13;71833.47;;;-144.13;100.00
76374;BME280;65197;50.164;8.012;2023-08-06T02:22:38;71829.56;;;-144.13;100.00
76374;BME280;65197;50.164;8.012;2023-08-06T02:25:04;71827.59;;;-144.13;100.00
76374;BME280;65197;50.164;8.012;2023-08-06T02:27:30;71827.59;;;-144.13;100.00
76374;BME280;65197;50.164;8.012;2023-08-06T02:29:55;71835.41;;;-144.13;100.00
76374;BME280;65197;50.164;8.012;2023-08-06T02:32:20;71841.25;;;-144.13;100.00
76374;BME280;65197;50.164;8.012;2023-08-06T02:34:46;71845.16;;;-144.13;100.00
76374;BME280;65197;50.164;8.012;2023-08-06T02:37:11;71841.25;;;-144.13;100.00
76374;BME280;65197;50.164;8.012;2023-08-06T02:39:37;71845.16;;;-144.13;100.00
76374;BME280;65197;50.164;8.012;2023-08-06T02:42:06;71843.22;;;-144.13;100.00
76374;BME280;65197;50.164;8.012;2023-08-06T02:44:31;71849.06;;;-144.13;100.00
76374;BME280;65197;50.164;8.012;2023-08-06T02:46:57;71845.16;;;-144.13;100.00
76374;BME280;65197;50.164;8.012;2023-08-06T02:49:22;71845.16;;;-144.13;100.00
76374;BME280;65197;50.164;8.012;2023-08-06T02:51:47;71841.25;;;-144.13;100.00
76374;BME280;65197;50.164;8.012;2023-08-06T02:54:13;71847.09;;;-144.13;100.00
76374;BME280;65197;50.164;8.012;2023-08-06T02:56:38;71845.16;;;-144.13;100.00
76374;BME280;65197;50.164;8.012;2023-08-06T02:59:04;71841.25;;;-144.13;100.00
76374;BME280;65197;50.164;8.012;2023-08-06T03:01:29;71845.16;;;-144.13;100.00
76374;BME280;65197;50.164;8.012;2023-08-06T03:03:54;71847.09;;;-144.13;100.00
76374;BME280;65197;50.164;8.012;2023-08-06T03:06:20;71852.97;;;-144.13;100.00
76374;BME280;65197;50.164;8.012;2023-08-06T03:08:45;71849.06;;;-144.13;100.00
76374;BME280;65197;50.164;8.012;2023-08-06T03:11:10;71849.06;;;-144.13;100.00
76374;BME280;65197;50.164;8.012;2023-08-06T03:13:36;71841.25;;;-144.13;100.00
76374;BME280;65197;50.164;8.012;2023-08-06T03:16:01;71849.06;;;-144.13;100.00
76374;BME280;65197;50.164;8.012;2023-08-06T03:18:27;71837.34;;;-144.13;100.00
76374;BME280;65197;50.164;8.012;2023-08-06T03:20:53;71837.34;;;-144.13;100.00
76374;BME280;65197;50.164;8.012;2023-08-06T03:23:18;71841.25;;;-144.13;100.00
76374;BME280;65197;50.164;8.012;2023-08-06T03:25:44;71835.41;;;-144.13;100.00
76374;BME280;65197;50.164;8.012;2023-08-06T03:28:10;71829.56;;;-144.13;100.00
76374;BME280;65197;50.164;8.012;2023-08-06T03:30:35;71817.84;;;-144.13;100.00
76374;BME280;65197;50.164;8.012;2023-08-06T03:33:01;71817.84;;;-144.13;100.00
76374;BME280;65197;50.164;8.012;2023-08-06T03:35:26;71817.84;;;-144.13;100.00
76374;BME280;65197;50.164;8.012;2023-08-06T03:37:51;71821.75;;;-144.13;100.00
76374;BME280;65197;50.164;8.012;2023-08-06T03:40:17;71829.56;;;-144.13;100.00
76374;BME280;65197;50.164;8.012;2023-08-06T03:42:42;71819.81;;;-144.13;100.00
76374;BME280;65197;50.164;8.012;2023-08-06T03:45:08;71829.56;;;-144.13;100.00
76374;BME280;65197;50.164;8.012;2023-08-06T03:47:34;71825.66;;;-144.13;100.00
76374;BME280;65197;50.164;8.012;2023-08-06T03:49:59;71819.81;;;-144.13;100.00
76374;BME280;65197;50.164;8.012;2023-08-06T03:52:25;71817.84;;;-144.13;100.00
76374;BME280;65197;50.164;8.012;2023-08-06T03:54:50;71825.66;;;-144.13;100.00
76374;BME280;65197;50.164;8.012;2023-08-06T03:57:15;71815.91;;;-144.13;100.00
76374;BME280;65197;50.164;8.012;2023-08-06T03:59:41;71819.81;;;-144.13;100.00
76374;BME280;65197;50.164;8.012;2023-08-06T04:02:06;71829.56;;;-144.13;100.00
76374;BME280;65197;50.164;8.012;2023-08-06T04:04:32;71825.66;;;-144.13;100.00
76374;BME280;65197;50.164;8.012;2023-08-06T04:06:57;71833.47;;;-144.13;100.00
76374;BME280;65197;50.164;8.012;2023-08-06T04:09:22;71841.25;;;-144.13;100.00
76374;BME280;65197;50.164;8.012;2023-08-06T04:11:48;71843.22;;;-144.13;100.00
76374;BME280;65197;50.164;8.012;2023-08-06T04:14:13;71849.06;;;-144.13;100.00
76374;BME280;65197;50.164;8.012;2023-08-06T04:16:38;71851.00;;;-144.13;100.00
76374;BME280;65197;50.164;8.012;2023-08-06T04:19:04;71852.97;;;-144.13;100.00
76374;BME280;65197;50.164;8.012;2023-08-06T04:21:29;71845.16;;;-144.13;100.00
76374;BME280;65197;50.164;8.012;2023-08-06T04:23:56;71841.25;;;-144.13;100.00
76374;BME280;65197;50.164;8.012;2023-08-06T04:26:21;71835.41;;;-144.13;100.00
76374;BME280;65197;50.164;8.012;2023-08-06T04:28:46;71837.34;;;-144.13;100.00
76374;BME280;65197;50.164;8.012;2023-08-06T04:31:12;71841.25;;;-144.13;100.00
76374;BME280;65197;50.164;8.012;2023-08-06T04:33:37;71835.41;;;-144.13;100.00
76374;BME280;65197;50.164;8.012;2023-08-06T04:36:03;71833.47;;;-144.13;100.00
76374;BME280;65197;50.164;8.012;2023-08-06T04:38:28;71833.47;;;-144.13;100.00
76374;BME280;65197;50.164;8.012;2023-08-06T04:40:54;71825.66;;;-144.13;100.00
76374;BME280;65197;50.164;8.012;2023-08-06T04:43:19;71823.72;;;-144.13;100.00
76374;BME280;65197;50.164;8.012;2023-08-06T04:45:53;71821.75;;;-144.13;100.00
76374;BME280;65197;50.164;8.012;2023-08-06T04:48:19;71817.84;;;-144.13;100.00
76374;BME280;65197;50.164;8.012;2023-08-06T04:50:45;71810.06;;;-144.13;100.00
76374;BME280;65197;50.164;8.012;2023-08-06T04:53:11;71819.81;;;-144.13;100.00
76374;BME280;65197;50.164;8.012;2023-08-06T04:55:37;71817.84;;;-144.13;100.00
76374;BME280;65197;50.164;8.012;2023-08-06T04:58:02;71821.75;;;-144.13;100.00
76374;BME280;65197;50.164;8.012;2023-08-06T05:00:28;71821.75;;;-144.13;100.00
76374;BME280;65197;50.164;8.012;2023-08-06T05:02:53;71823.72;;;-144.13;100.00
76374;BME280;65197;50.164;8.012;2023-08-06T05:05:18;71821.75;;;-144.13;100.00
76374;BME280;65197;50.164;8.012;2023-08-06T05:07:47;71817.84;;;-144.13;100.00
76374;BME280;65197;50.164;8.012;2023-08-06T05:10:13;71821.75;;;-144.13;100.00
76374;BME280;65197;50.164;8.012;2023-08-06T05:12:38;71819.81;;;-144.13;100.00
76374;BME280;65197;50.164;8.012;2023-08-06T05:15:04;71817.84;;;-144.13;100.00
76374;BME280;65197;50.164;8.012;2023-08-06T05:17:30;71810.06;;;-144.13;100.00
76374;BME280;65197;50.164;8.012;2023-08-06T05:19:55;71810.06;;;-144.13;100.00
76374;BME280;65197;50.164;8.012;2023-08-06T05:22:20;71806.16;;;-144.13;100.00
76374;BME280;65197;50.164;8.012;2023-08-06T05:24:46;71806.16;;;-144.13;100.00
76374;BME280;65197;50.164;8.012;2023-08-06T05:27:11;71810.06;;;-144.13;100.00
76374;BME280;65197;50.164;8.012;2023-08-06T05:29:36;71812.00;;;-144.13;100.00
76374;BME280;65197;50.164;8.012;2023-08-06T05:32:02;71817.84;;;-144.13;100.00
76374;BME280;65197;50.164;8.012;2023-08-06T05:34:27;71815.91;;;-144.13;100.00
76374;BME280;65197;50.164;8.012;2023-08-06T05:36:53;71817.84;;;-144.13;100.00
76374;BME280;65197;50.164;8.012;2023-08-06T05:39:18;71810.06;;;-144.13;100.00
76374;BME280;65197;50.164;8.012;2023-08-06T05:41:43;71821.75;;;-144.13;100.00
76374;BME280;65197;50.164;8.012;2023-08-06T05:44:09;71817.84;;;-144.13;100.00
76374;BME280;65197;50.164;8.012;2023-08-06T05:46:34;71817.84;;;-144.13;100.00
76374;BME280;65197;50.164;8.012;2023-08-06T05:48:59;71810.06;;;-144.13;100.00
76374;BME280;65197;50.164;8.012;2023-08-06T05:51:26;71810.06;;;-144.13;100.00
76374;BME280;65197;50.164;8.012;2023-08-06T05:53:52;71806.16;;;-144.13;100.00
76374;BME280;65197;50.164;8.012;2023-08-06T05:56:17;71817.84;;;-144.13;100.00
76374;BME280;65197;50.164;8.012;2023-08-06T05:58:43;71808.09;;;-144.13;100.00
76374;BME280;65197;50.164;8.012;2023-08-06T06:01:08;71810.06;;;-144.13;100.00
76374;BME280;65197;50.164;8.012;2023-08-06T06:03:33;71810.06;;;-144.13;100.00
76374;BME280;65197;50.164;8.012;2023-08-06T06:06:01;71806.16;;;-144.13;100.00
76374;BME280;65197;50.164;8.012;2023-08-06T06:08:26;71798.34;;;-144.13;100.00
76374;BME280;65197;50.164;8.012;2023-08-06T06:10:52;71798.34;;;-144.13;100.00
76374;BME280;65197;50.164;8.012;2023-08-06T06:13:17;71794.47;;;-144.13;100.00
76374;BME280;65197;50.164;8.012;2023-08-06T06:15:42;71792.50;;;-144.13;100.00
76374;BME280;65197;50.164;8.012;2023-08-06T06:18:08;71798.34;;;-144.13;100.00
76374;BME280;65197;50.164;8.012;2023-08-06T06:20:33;71790.56;;;-144.13;100.00
76374;BME280;65197;50.164;8.012;2023-08-06T06:22:59;71790.56;;;-144.13;100.00
76374;BME280;65197;50.164;8.012;2023-08-06T06:25:24;71786.66;;;-144.13;100.00
76374;BME280;65197;50.164;8.012;2023-08-06T06:27:50;71794.47;;;-144.13;100.00
76374;BME280;65197;50.164;8.012;2023-08-06T06:30:15;71802.25;;;-144.13;100.00
76374;BME280;65197;50.164;8.012;2023-08-06T06:32:40;71804.22;;;-144.13;100.00
76374;BME280;65197;50.164;8.012;2023-08-06T06:35:06;71806.16;;;-144.13;100.00
76374;BME280;65197;50.164;8.012;2023-08-06T06:37:32;71817.84;;;-144.13;100.00
76374;BME280;65197;50.164;8.012;2023-08-06T06:39:57;71817.84;;;-144.13;100.00
76374;BME280;65197;50.164;8.012;2023-08-06T06:42:23;71810.06;;;-144.13;100.00
76374;BME280;65197;50.164;8.012;2023-08-06T06:44:48;71821.75;;;-144.13;100.00
76374;BME280;65197;50.164;8.012;2023-08-06T06:47:14;71817.84;;;-144.13;100.00
76374;BME280;65197;50.164;8.012;2023-08-06T06:49:39;71819.81;;;-144.13;100.00
76374;BME280;65197;50.164;8.012;2023-08-06T06:52:05;71808.09;;;-144.13;100.00
76374;BME280;65197;50.164;8.012;2023-08-06T06:54:30;71802.25;;;-144.13;100.00
76374;BME280;65197;50.164;8.012;2023-08-06T06:56:56;71800.31;;;-144.13;100.00
76374;BME280;65197;50.164;8.012;2023-08-06T06:59:21;71794.47;;;-144.13;100.00
76374;BME280;65197;50.164;8.012;2023-08-06T07:01:46;71782.75;;;-144.13;100.00
76374;BME280;65197;50.164;8.012;2023-08-06T07:04:12;71778.88;;;-144.13;100.00
76374;BME280;65197;50.164;8.012;2023-08-06T07:06:37;71776.91;;;-144.13;100.00
76374;BME280;65197;50.164;8.012;2023-08-06T07:09:03;71763.25;;;-144.13;100.00
76374;BME280;65197;50.164;8.012;2023-08-06T07:11:28;71763.25;;;-144.13;100.00
76374;BME280;65197;50.164;8.012;2023-08-06T07:13:57;71751.56;;;-144.13;100.00
76374;BME280;65197;50.164;8.012;2023-08-06T07:16:26;71759.34;;;-144.13;100.00
76374;BME280;65197;50.164;8.012;2023-08-06T07:18:52;71763.25;;;-144.13;100.00
76374;BME280;65197;50.164;8.012;2023-08-06T07:21:18;71763.25;;;-144.13;100.00
76374;BME280;65197;50.164;8.012;2023-08-06T07:23:43;71755.47;;;-144.13;100.00
76374;BME280;65197;50.164;8.012;2023-08-06T07:26:09;71747.66;;;-144.13;100.00
76374;BME280;65197;50.164;8.012;2023-08-06T07:28:34;71739.88;;;-144.13;100.00
76374;BME280;65197;50.164;8.012;2023-08-06T07:31:00;71724.25;;;-144.13;100.00
76374;BME280;65197;50.164;8.012;2023-08-06T07:33:25;71712.56;;;-144.13;100.00
76374;BME280;65197;50.164;8.012;2023-08-06T07:35:50;71696.97;;;-144.13;100.00
76374;BME280;65197;50.164;8.012;2023-08-06T07:38:16;71673.56;;;-144.13;100.00
76374;BME280;65197;50.164;8.012;2023-08-06T07:40:42;71626.78;;;-144.13;100.00
76374;BME280;65197;50.164;8.012;2023-08-06T07:43:07;71607.28;;;-144.13;100.00
76374;BME280;65197;50.164;8.012;2023-08-06T07:45:36;71599.47;;;-144.13;100.00
76374;BME280;65197;50.164;8.012;2023-08-06T07:48:02;71601.44;;;-144.13;100.00
76374;BME280;65197;50.164;8.012;2023-08-06T07:50:28;71581.94;;;-144.13;100.00
76374;BME280;65197;50.164;8.012;2023-08-06T07:52:53;71568.28;;;-144.13;100.00
76374;BME280;65197;50.164;8.012;2023-08-06T07:55:18;71525.38;;;-144.13;100.00
76374;BME280;65197;50.164;8.012;2023-08-06T07:57:44;71502.00;;;-144.13;100.00
76374;BME280;65197;50.164;8.012;2023-08-06T08:00:09;71466.91;;;-144.13;100.00
76374;BME280;65197;50.164;8.012;2023-08-06T08:02:35;71503.94;;;-144.13;100.00
76374;BME280;65197;50.164;8.012;2023-08-06T08:05:00;71537.09;;;-144.13;100.00
76374;BME280;65197;50.164;8.012;2023-08-06T08:07:26;71539.03;;;-144.13;100.00
76374;BME280;65197;50.164;8.012;2023-08-06T08:09:53;71548.78;;;-144.13;100.00
76374;BME280;65197;50.164;8.012;2023-08-06T08:12:19;71572.19;;;-144.13;100.00
76374;BME280;65197;50.164;8.012;2023-08-06T08:14:44;71566.34;;;-144.13;100.00
76374;BME280;65197;50.164;8.012;2023-08-06T08:17:10;71540.97;;;-144.13;100.00
76374;BME280;65197;50.164;8.012;2023-08-06T08:19:37;71542.94;;;-144.13;100.00
76374;BME280;65197;50.164;8.012;2023-08-06T08:22:02;71540.97;;;-144.13;100.00
76374;BME280;65197;50.164;8.012;2023-08-06T08:24:28;71511.72;;;-144.13;100.00
76374;BME280;65197;50.164;8.012;2023-08-06T08:26:56;71494.19;;;-144.13;100.00
76374;BME280;65197;50.164;8.012;2023-08-06T08:29:22;71484.44;;;-144.13;100.00
76374;BME280;65197;50.164;8.012;2023-08-06T08:31:47;71478.59;;;-144.13;100.00
76374;BME280;65197;50.164;8.012;2023-08-06T08:34:16;71420.09;;;-144.13;100.00
76374;BME280;65197;50.164;8.012;2023-08-06T08:36:41;71414.25;;;-144.13;100.00
76374;BME280;65197;50.164;8.012;2023-08-06T08:39:07;71451.28;;;-144.13;100.00
76374;BME280;65197;50.164;8.012;2023-08-06T08:41:33;71451.28;;;-144.13;100.00
76374;BME280;65197;50.164;8.012;2023-08-06T08:43:59;71447.41;;;-144.13;100.00
76374;BME280;65197;50.164;8.012;2023-08-06T08:46:32;71437.66;;;-144.13;100.00
76374;BME280;65197;50.164;8.012;2023-08-06T08:48:59;71427.91;;;-144.13;100.00
76374;BME280;65197;50.164;8.012;2023-08-06T08:51:26;71455.19;;;-144.13;100.00
76374;BME280;65197;50.164;8.012;2023-08-06T08:53:53;71478.59;;;-144.13;100.00
76374;BME280;65197;50.164;8.012;2023-08-06T08:56:20;71502.00;;;-144.13;100.00
76374;BME280;65197;50.164;8.012;2023-08-06T08:58:46;71525.38;;;-144.13;100.00
76374;BME280;65197;50.164;8.012;2023-08-06T09:01:11;71540.97;;;-144.13;100.00
76374;BME280;65197;50.164;8.012;2023-08-06T09:03:38;71556.56;;;-144.13;100.00
76374;BME280;65197;50.164;8.012;2023-08-06T09:06:04;71599.47;;;-144.13;100.00
76374;BME280;65197;50.164;8.012;2023-08-06T09:08:37;71618.97;;;-144.13;100.00
76374;BME280;65197;50.164;8.012;2023-08-06T09:11:04;71630.66;;;-144.13;100.00
76374;BME280;65197;50.164;8.012;2023-08-06T09:13:30;71609.22;;;-144.13;100.00
76374;BME280;65197;50.164;8.012;2023-08-06T09:15:55;71455.19;;;-144.13;100.00
76374;BME280;65197;50.164;8.012;2023-08-06T09:18:27;71408.41;;;-144.13;100.00
76374;BME280;65197;50.164;8.012;2023-08-06T09:20:54;71422.03;;;-144.13;100.00
76374;BME280;65197;50.164;8.012;2023-08-06T09:23:19;71424.00;;;-144.13;100.00
76374;BME280;65197;50.164;8.012;2023-08-06T09:25:45;71466.91;;;-144.13;100.00
76374;BME280;65197;50.164;8.012;2023-08-06T09:28:11;71502.00;;;-144.13;100.00
76374;BME280;65197;50.164;8.012;2023-08-06T09:30:37;71523.44;;;-144.13;100.00
76374;BME280;65197;50.164;8.012;2023-08-06T09:33:03;71539.03;;;-144.13;100.00
76374;BME280;65197;50.164;8.012;2023-08-06T09:35:29;71544.88;;;-144.13;100.00
76374;BME280;65197;50.164;8.012;2023-08-06T09:37:56;71496.13;;;-144.13;100.00
76374;BME280;65197;50.164;8.012;2023-08-06T09:40:27;71416.19;;;-144.13;100.00
76374;BME280;65197;50.164;8.012;2023-08-06T09:42:53;71299.22;;;-144.13;97.74
76374;BME280;65197;50.164;8.012;2023-08-06T09:45:18;71330.41;;;-144.13;96.78
76374;BME280;65197;50.164;8.012;2023-08-06T09:47:44;71353.81;;;-144.13;100.00
76374;BME280;65197;50.164;8.012;2023-08-06T09:50:20;71392.81;;;-144.13;100.00
76374;BME280;65197;50.164;8.012;2023-08-06T09:52:50;71408.41;;;-144.13;100.00
76374;BME280;65197;50.164;8.012;2023-08-06T09:55:17;71260.22;;;-144.13;100.00
76374;BME280;65197;50.164;8.012;2023-08-06T09:57:43;71192.00;;;-144.13;96.72
76374;BME280;65197;50.164;8.012;2023-08-06T10:00:10;71100.38;;;-144.13;95.24
76374;BME280;65197;50.164;8.012;2023-08-06T10:02:39;71041.88;;;-144.13;90.12
76374;BME280;65197;50.164;8.012;2023-08-06T10:05:06;70963.91;;;-144.13;87.27
76374;BME280;65197;50.164;8.012;2023-08-06T10:07:31;70936.59;;;-144.13;83.73
76374;BME280;65197;50.164;8.012;2023-08-06T10:09:58;70924.91;;;-144.13;83.25
76374;BME280;65197;50.164;8.012;2023-08-06T10:12:24;70940.50;;;-144.13;78.80
76374;BME280;65197;50.164;8.012;2023-08-06T10:14:53;70989.25;;;-144.13;81.44
76374;BME280;65197;50.164;8.012;2023-08-06T10:17:21;71115.97;;;-144.13;84.03
76374;BME280;65197;50.164;8.012;2023-08-06T10:19:48;71174.44;;;-144.13;86.04
76374;BME280;65197;50.164;8.012;2023-08-06T10:22:16;71297.28;;;-144.13;88.90
76374;BME280;65197;50.164;8.012;2023-08-06T10:24:50;71361.59;;;-144.13;93.72
76374;BME280;65197;50.164;8.012;2023-08-06T10:29:54;71318.72;;;-144.13;92.02
76374;BME280;65197;50.164;8.012;2023-08-06T10:32:20;71338.22;;;-144.13;91.47
76374;BME280;65197;50.164;8.012;2023-08-06T10:37:18;71388.91;;;-144.13;94.47
76374;BME280;65197;50.164;8.012;2023-08-06T10:39:53;71435.69;;;-144.13;96.37
76374;BME280;65197;50.164;8.012;2023-08-06T10:42:31;71503.94;;;-144.13;98.61
76374;BME280;65197;50.164;8.012;2023-08-06T10:45:18;71587.78;;;-144.13;100.00
76374;BME280;65197;50.164;8.012;2023-08-06T10:47:45;71663.81;;;-144.13;100.00
76374;BME280;65197;50.164;8.012;2023-08-06T10:50:12;71685.28;;;-144.13;100.00
76374;BME280;65197;50.164;8.012;2023-08-06T10:52:46;71712.56;;;-144.13;100.00
76374;BME280;65197;50.164;8.012;2023-08-06T10:55:13;71751.56;;;-144.13;100.00
76374;BME280;65197;50.164;8.012;2023-08-06T10:57:38;71769.09;;;-144.13;100.00
76374;BME280;65197;50.164;8.012;2023-08-06T11:00:05;71796.41;;;-144.13;100.00
76374;BME280;65197;50.164;8.012;2023-08-06T11:02:35;71806.16;;;-144.13;100.00
76374;BME280;65197;50.164;8.012;2023-08-06T11:05:08;71831.50;;;-144.13;100.00
76374;BME280;65197;50.164;8.012;2023-08-06T11:07:34;71843.22;;;-144.13;100.00
76374;BME280;65197;50.164;8.012;2023-08-06T11:10:09;71847.09;;;-144.13;100.00
76374;BME280;65197;50.164;8.012;2023-08-06T11:12:35;71856.84;;;-144.13;100.00
76374;BME280;65197;50.164;8.012;2023-08-06T11:15:01;71845.16;;;-144.13;100.00
76374;BME280;65197;50.164;8.012;2023-08-06T11:17:31;71860.75;;;-144.13;100.00
76374;BME280;65197;50.164;8.012;2023-08-06T11:20:01;71864.66;;;-144.13;100.00
76374;BME280;65197;50.164;8.012;2023-08-06T11:22:27;71864.66;;;-144.13;100.00
76374;BME280;65197;50.164;8.012;2023-08-06T11:24:53;71868.56;;;-144.13;100.00
76374;BME280;65197;50.164;8.012;2023-08-06T11:27:19;71880.25;;;-144.13;100.00
76374;BME280;65197;50.164;8.012;2023-08-06T11:29:44;71868.56;;;-144.13;100.00
76374;BME280;65197;50.164;8.012;2023-08-06T11:32:10;71868.56;;;-144.13;100.00
76374;BME280;65197;50.164;8.012;2023-08-06T11:34:36;71880.25;;;-144.13;100.00
76374;BME280;65197;50.164;8.012;2023-08-06T11:37:06;71895.84;;;-144.13;100.00
76374;BME280;65197;50.164;8.012;2023-08-06T11:39:35;71895.84;;;-144.13;100.00
76374;BME280;65197;50.164;8.012;2023-08-06T11:42:07;71884.16;;;-144.13;100.00
76374;BME280;65197;50.164;8.012;2023-08-06T11:44:34;71868.56;;;-144.13;100.00
76374;BME280;65197;50.164;8.012;2023-08-06T11:47:02;71888.06;;;-144.13;100.00
76374;BME280;65197;50.164;8.012;2023-08-06T11:49:48;71897.81;;;-144.13;100.00
76374;BME280;65197;50.164;8.012;2023-08-06T11:52:21;71899.75;;;-144.13;100.00
76374;BME280;65197;50.164;8.012;2023-08-06T11:55:03;71919.25;;;-144.13;100.00
76374;BME280;65197;50.164;8.012;2023-08-06T11:57:30;71927.06;;;-144.13;100.00
76374;BME280;65197;50.164;8.012;2023-08-06T12:00:01;71948.50;;;-144.13;100.00
76374;BME280;65197;50.164;8.012;2023-08-06T12:02:31;71938.75;;;-144.13;100.00
76374;BME280;65197;50.164;8.012;2023-08-06T12:05:04;71952.41;;;-144.13;100.00
76374;BME280;65197;50.164;8.012;2023-08-06T12:07:31;71938.75;;;-144.13;100.00
76374;BME280;65197;50.164;8.012;2023-08-06T12:09:57;71942.66;;;-144.13;100.00
76374;BME280;65197;50.164;8.012;2023-08-06T12:12:23;71958.25;;;-144.13;100.00
76374;BME280;65197;50.164;8.012;2023-08-06T12:14:49;71956.31;;;-144.13;100.00
76374;BME280;65197;50.164;8.012;2023-08-06T12:17:14;71966.06;;;-144.13;100.00
76374;BME280;65197;50.164;8.012;2023-08-06T12:19:40;71962.16;;;-144.13;100.00
76374;BME280;65197;50.164;8.012;2023-08-06T12:22:05;71966.06;;;-144.13;100.00
76374;BME280;65197;50.164;8.012;2023-08-06T12:24:30;71954.34;;;-144.13;100.00
76374;BME280;65197;50.164;8.012;2023-08-06T12:26:57;71946.56;;;-144.13;100.00
76374;BME280;65197;50.164;8.012;2023-08-06T12:29:23;71966.06;;;-144.13;100.00
76374;BME280;65197;50.164;8.012;2023-08-06T12:31:48;71973.84;;;-144.13;100.00
76374;BME280;65197;50.164;8.012;2023-08-06T12:34:14;71968.00;;;-144.13;100.00
76374;BME280;65197;50.164;8.012;2023-08-06T12:36:39;71954.34;;;-144.13;100.00
76374;BME280;65197;50.164;8.012;2023-08-06T12:39:04;71946.56;;;-144.13;100.00